createdAt,value
2022-08-06T00:00:03.233Z,102186.91
2022-08-06T00:02:22.825Z,102182.38
2022-08-06T00:04:57.731Z,102190.94
2022-08-06T00:07:28.393Z,102186.78
2022-08-06T00:10:01.509Z,102190.25
2022-08-06T00:12:32.461Z,102198.06
2022-08-06T00:15:12.772Z,102189.31
2022-08-06T00:17:43.626Z,102194.59
2022-08-06T00:20:20.935Z,102203.66
2022-08-06T00:22:54.705Z,102204.19
2022-08-06T00:25:22.904Z,102212.25
2022-08-06T00:27:52.202Z,102203.50
2022-08-06T00:30:21.973Z,102209.66
2022-08-06T00:32:53.367Z,102211.59
2022-08-06T00:35:23.896Z,102216.09
2022-08-06T00:37:59.103Z,102214.34
2022-08-06T00:40:29.931Z,102227.03
2022-08-06T00:43:02.183Z,102227.78
2022-08-06T00:45:31.514Z,102222.59
2022-08-06T00:48:05.212Z,102226.44
2022-08-06T00:50:38.126Z,102231.34
2022-08-06T00:53:06.788Z,102238.25
2022-08-06T00:55:59.702Z,102236.31
2022-08-06T00:58:39.588Z,102238.13
2022-08-06T01:01:17.221Z,102235.53
2022-08-06T01:03:51.650Z,102251.66
2022-08-06T01:06:54.636Z,102253.78
2022-08-06T01:09:09.976Z,102253.69
2022-08-06T01:11:39.360Z,102257.41
2022-08-06T01:14:10.079Z,102257.31
2022-08-06T01:16:45.419Z,102262.88
2022-08-06T01:21:20.361Z,102259.16
2022-08-06T01:22:56.359Z,102263.06
2022-08-06T01:26:01.443Z,102262.28
2022-08-06T01:28:38.486Z,102278.59
2022-08-06T01:31:11.101Z,102268.63
2022-08-06T01:33:46.814Z,102274.09
2022-08-06T01:36:28.319Z,102273.16
2022-08-06T01:39:01.673Z,102281.13
2022-08-06T01:41:58.326Z,102290.22
2022-08-06T01:44:33.662Z,102282.16
2022-08-06T01:47:15.947Z,102277.84
2022-08-06T01:50:00.564Z,102279.56
2022-08-06T01:52:34.126Z,102284.25
2022-08-06T01:55:04.068Z,102286.16
2022-08-06T01:58:08.397Z,102278.00
2022-08-06T02:00:27.013Z,102281.75
2022-08-06T02:03:00.730Z,102281.03
2022-08-06T02:05:32.137Z,102288.06
2022-08-06T02:08:38.653Z,102281.81
2022-08-06T02:10:52.271Z,102285.56
2022-08-06T02:13:23.397Z,102288.94
2022-08-06T02:15:58.743Z,102283.03
2022-08-06T02:18:35.071Z,102281.13
2022-08-06T02:21:18.720Z,102280.28
2022-08-06T02:23:50.830Z,102295.34
2022-08-06T02:26:20.592Z,102289.56
2022-08-06T02:28:55.739Z,102288.69
2022-08-06T02:31:25.393Z,102285.22
2022-08-06T02:34:02.990Z,102291.50
2022-08-06T02:36:50.126Z,102289.31
2022-08-06T02:39:30.227Z,102290.06
2022-08-06T02:42:20.175Z,102299.72
2022-08-06T02:44:57.458Z,102297.53
2022-08-06T02:47:53.170Z,102307.59
2022-08-06T02:50:25.487Z,102304.03
2022-08-06T02:53:03.664Z,102299.81
2022-08-06T02:55:36.482Z,102306.13
2022-08-06T02:58:12.856Z,102308.81
2022-08-06T03:00:51.766Z,102309.00
2022-08-06T03:03:34.515Z,102302.75
2022-08-06T03:06:07.051Z,102310.22
2022-08-06T03:08:37.760Z,102315.50
2022-08-06T03:11:07.814Z,102311.06
2022-08-06T03:13:36.718Z,102312.13
2022-08-06T03:16:23.093Z,102313.00
2022-08-06T03:19:55.052Z,102313.00
2022-08-06T03:21:55.603Z,102316.00
2022-08-06T03:24:27.374Z,102320.41
2022-08-06T03:26:58.624Z,102327.78
2022-08-06T03:29:28.666Z,102327.69
2022-08-06T03:32:13.496Z,102320.59
2022-08-06T03:34:49.028Z,102324.59
2022-08-06T03:37:22.104Z,102335.31
2022-08-06T03:40:13.258Z,102330.84
2022-08-06T03:42:43.848Z,102340.66
2022-08-06T03:45:23.622Z,102339.75
2022-08-06T03:48:07.977Z,102339.78
2022-08-06T03:50:46.080Z,102343.41
2022-08-06T03:53:20.968Z,102351.19
2022-08-06T03:55:57.158Z,102351.34
2022-08-06T03:58:28.562Z,102358.31
2022-08-06T04:01:02.302Z,102349.47
2022-08-06T04:03:39.583Z,102352.94
2022-08-06T04:06:16.663Z,102348.41
2022-08-06T04:08:50.286Z,102357.53
2022-08-06T04:12:14.160Z,102354.03
2022-08-06T04:14:09.345Z,102362.00
2022-08-06T04:16:39.068Z,102374.56
2022-08-06T04:19:13.416Z,102370.06
2022-08-06T04:22:59.222Z,102368.78
2022-08-06T04:24:33.694Z,102372.16
2022-08-06T04:27:05.425Z,102376.69
2022-08-06T04:29:56.312Z,102372.25
2022-08-06T04:32:28.991Z,102365.06
2022-08-06T04:36:05.937Z,102382.13
2022-08-06T04:37:53.392Z,102388.06
2022-08-06T04:40:27.503Z,102388.41
2022-08-06T04:43:04.493Z,102386.75
2022-08-06T04:46:15.900Z,102391.25
2022-08-06T04:48:23.383Z,102400.00
2022-08-06T04:50:54.555Z,102407.75
2022-08-06T04:53:30.337Z,102412.25
2022-08-06T04:56:15.416Z,102417.38
2022-08-06T04:58:46.201Z,102415.38
2022-08-06T05:01:14.246Z,102419.75
2022-08-06T05:04:07.160Z,102425.81
2022-08-06T05:06:37.665Z,102430.13
2022-08-06T05:09:23.545Z,102425.22
2022-08-06T05:12:07.129Z,102434.31
2022-08-06T05:14:42.940Z,102434.16
2022-08-06T05:17:15.482Z,102436.50
2022-08-06T05:19:47.177Z,102439.69
2022-08-06T05:22:19.650Z,102442.06
2022-08-06T05:25:19.308Z,102445.53
2022-08-06T05:28:03.287Z,102458.69
2022-08-06T05:30:44.927Z,102448.47
2022-08-06T05:33:16.800Z,102453.59
2022-08-06T05:36:00.309Z,102460.28
2022-08-06T05:38:31.782Z,102453.63
2022-08-06T05:41:02.012Z,102456.97
2022-08-06T05:43:57.999Z,102461.69
2022-08-06T05:46:21.517Z,102465.94
2022-08-06T05:48:58.168Z,102457.69
2022-08-06T05:51:45.478Z,102467.16
2022-08-06T05:54:23.214Z,102470.22
2022-08-06T05:56:59.082Z,102473.00
2022-08-06T05:59:57.981Z,102470.97
2022-08-06T06:02:26.901Z,102475.50
2022-08-06T06:06:02.118Z,102483.84
2022-08-06T06:08:09.878Z,102480.66
2022-08-06T06:10:34.775Z,102487.50
2022-08-06T06:13:24.501Z,102494.28
2022-08-06T06:16:08.022Z,102490.13
2022-08-06T06:18:53.855Z,102494.59
2022-08-06T06:21:32.770Z,102491.41
2022-08-06T06:24:09.047Z,102489.94
2022-08-06T06:26:43.729Z,102493.06
2022-08-06T06:30:05.153Z,102501.13
2022-08-06T06:32:28.487Z,102502.38
2022-08-06T06:35:07.134Z,102503.63
2022-08-06T06:37:44.030Z,102511.41
2022-08-06T06:40:29.105Z,102505.19
2022-08-06T06:43:04.883Z,102505.19
2022-08-06T06:46:04.753Z,102514.00
2022-08-06T06:48:34.667Z,102506.91
2022-08-06T06:51:09.519Z,102507.31
2022-08-06T06:54:06.666Z,102501.88
2022-08-06T06:56:36.521Z,102510.53
2022-08-06T06:59:13.081Z,102501.09
2022-08-06T07:01:51.019Z,102490.00
2022-08-06T07:04:26.564Z,102496.09
2022-08-06T07:06:57.731Z,102500.28
2022-08-06T07:09:40.345Z,102497.81
2022-08-06T07:12:19.756Z,102507.31
2022-08-06T07:15:00.882Z,102510.75
2022-08-06T07:17:44.721Z,102517.09
2022-08-06T07:20:18.839Z,102518.75
2022-08-06T07:24:02.888Z,102520.13
2022-08-06T07:25:53.912Z,102515.69
2022-08-06T07:28:28.317Z,102521.53
2022-08-06T07:31:04.294Z,102522.72
2022-08-06T07:33:59.877Z,102518.72
2022-08-06T07:36:37.783Z,102529.47
2022-08-06T07:39:14.619Z,102528.34
2022-08-06T07:42:08.092Z,102533.31
2022-08-06T07:44:56.632Z,102536.75
2022-08-06T07:47:37.174Z,102533.06
2022-08-06T07:50:17.183Z,102536.25
2022-08-06T07:52:45.479Z,102547.38
2022-08-06T07:55:16.053Z,102550.03
2022-08-06T07:57:55.342Z,102544.88
2022-08-06T08:00:28.847Z,102552.81
2022-08-06T08:03:43.196Z,102549.19
2022-08-06T08:06:22.957Z,102547.78
2022-08-06T08:08:54.487Z,102547.81
2022-08-06T08:11:37.817Z,102540.28
2022-08-06T08:14:15.647Z,102553.31
2022-08-06T08:16:43.992Z,102539.44
2022-08-06T08:19:23.660Z,102545.78
2022-08-06T08:21:53.880Z,102546.34
2022-08-06T08:24:21.807Z,102545.78
2022-08-06T08:27:04.494Z,102537.97
2022-08-06T08:29:34.704Z,102543.22
2022-08-06T08:32:05.242Z,102542.84
2022-08-06T08:34:46.909Z,102542.56
2022-08-06T08:37:31.944Z,102542.59
2022-08-06T08:40:01.229Z,102545.78
2022-08-06T08:42:38.098Z,102550.78
2022-08-06T08:45:12.967Z,102555.38
2022-08-06T08:47:53.773Z,102552.38
2022-08-06T08:50:29.471Z,102559.00
2022-08-06T08:53:04.563Z,102547.53
2022-08-06T08:57:11.242Z,102545.84
2022-08-06T08:58:42.052Z,102555.25
2022-08-06T09:01:51.462Z,102559.34
2022-08-06T09:04:05.508Z,102556.00
2022-08-06T09:06:37.171Z,102562.16
2022-08-06T09:09:16.190Z,102568.78
2022-08-06T09:12:04.943Z,102573.31
2022-08-06T09:14:34.055Z,102555.13
2022-08-06T09:17:03.602Z,102566.34
2022-08-06T09:19:38.120Z,102566.94
2022-08-06T09:22:11.872Z,102565.94
2022-08-06T09:24:41.830Z,102568.78
2022-08-06T09:27:45.442Z,102563.28
2022-08-06T09:30:11.699Z,102568.81
2022-08-06T09:32:54.802Z,102563.88
2022-08-06T09:35:44.849Z,102571.16
2022-08-06T09:38:16.282Z,102570.31
2022-08-06T09:41:06.358Z,102579.53
2022-08-06T09:44:03.211Z,102570.59
2022-08-06T09:46:51.537Z,102580.19
2022-08-06T09:49:47.451Z,102573.25
2022-08-06T09:52:17.257Z,102576.03
2022-08-06T09:54:52.715Z,102587.91
2022-08-06T09:57:33.285Z,102580.16
2022-08-06T10:00:05.290Z,102593.53
2022-08-06T10:02:50.772Z,102594.97
2022-08-06T10:05:20.989Z,102581.00
2022-08-06T10:08:05.633Z,102591.78
2022-08-06T10:10:44.485Z,102585.66
2022-08-06T10:13:19.702Z,102589.91
2022-08-06T10:16:00.884Z,102589.66
2022-08-06T10:18:54.645Z,102603.28
2022-08-06T10:21:41.298Z,102592.06
2022-08-06T10:24:12.419Z,102601.91
2022-08-06T10:26:43.477Z,102599.72
2022-08-06T10:29:17.737Z,102583.19
2022-08-06T10:31:53.038Z,102586.63
2022-08-06T10:34:33.557Z,102589.22
2022-08-06T10:37:10.671Z,102585.91
2022-08-06T10:40:07.893Z,102587.44
2022-08-06T10:42:40.108Z,102579.16
2022-08-06T10:45:13.691Z,102583.50
2022-08-06T10:48:59.449Z,102580.59
2022-08-06T10:50:44.351Z,102597.47
2022-08-06T10:53:59.849Z,102593.25
2022-08-06T10:56:09.272Z,102600.19
2022-08-06T10:58:41.636Z,102591.97
2022-08-06T11:01:22.103Z,102592.97
2022-08-06T11:04:06.623Z,102589.97
2022-08-06T11:07:09.831Z,102588.00
2022-08-06T11:10:02.274Z,102582.47
2022-08-06T11:12:48.127Z,102575.59
2022-08-06T11:15:22.613Z,102576.91
2022-08-06T11:17:54.140Z,102568.88
2022-08-06T11:20:47.726Z,102578.63
2022-08-06T11:23:58.609Z,102576.69
2022-08-06T11:26:36.579Z,102568.81
2022-08-06T11:29:08.327Z,102566.69
2022-08-06T11:31:39.022Z,102565.50
2022-08-06T11:34:27.294Z,102567.56
2022-08-06T11:37:11.122Z,102562.66
2022-08-06T11:40:07.578Z,102560.88
2022-08-06T11:42:50.424Z,102563.84
2022-08-06T11:46:21.144Z,102560.13
2022-08-06T11:48:12.617Z,102559.41
2022-08-06T11:50:56.550Z,102564.63
2022-08-06T11:53:46.381Z,102557.81
2022-08-06T11:56:25.631Z,102547.50
2022-08-06T11:59:14.584Z,102542.88
2022-08-06T12:01:49.650Z,102550.19
2022-08-06T12:04:41.969Z,102549.31
2022-08-06T12:07:24.483Z,102559.09
2022-08-06T12:10:02.238Z,102551.97
2022-08-06T12:12:39.083Z,102560.13
2022-08-06T12:15:53.214Z,102562.38
2022-08-06T12:18:31.222Z,102556.22
2022-08-06T12:21:01.280Z,102558.31
2022-08-06T12:23:54.060Z,102555.56
2022-08-06T12:26:33.653Z,102561.84
2022-08-06T12:29:07.194Z,102562.84
2022-08-06T12:31:44.157Z,102557.13
2022-08-06T12:34:31.234Z,102548.88
2022-08-06T12:37:00.291Z,102557.22
2022-08-06T12:39:47.942Z,102547.47
2022-08-06T12:42:53.666Z,102561.84
2022-08-06T12:46:05.438Z,102546.91
2022-08-06T12:48:05.339Z,102544.84
2022-08-06T12:50:42.251Z,102552.56
2022-08-06T12:53:14.469Z,102557.00
2022-08-06T12:55:56.414Z,102552.03
2022-08-06T12:58:43.026Z,102555.66
2022-08-06T13:01:16.517Z,102548.53
2022-08-06T13:04:06.712Z,102554.19
2022-08-06T13:06:38.655Z,102546.31
2022-08-06T13:09:10.180Z,102554.69
2022-08-06T13:11:42.226Z,102558.75
2022-08-06T13:14:18.479Z,102562.59
2022-08-06T13:16:56.200Z,102558.22
2022-08-06T13:19:28.289Z,102563.47
2022-08-06T13:22:09.212Z,102559.19
2022-08-06T13:25:01.646Z,102562.66
2022-08-06T13:27:35.374Z,102548.72
2022-08-06T13:30:35.837Z,102556.16
2022-08-06T13:33:13.341Z,102549.44
2022-08-06T13:35:41.975Z,102545.25
2022-08-06T13:38:16.738Z,102541.13
2022-08-06T13:40:56.871Z,102545.53
2022-08-06T13:43:43.132Z,102540.81
2022-08-06T13:46:28.279Z,102538.81
2022-08-06T13:49:01.390Z,102546.53
2022-08-06T13:51:35.278Z,102542.63
2022-08-06T13:54:16.127Z,102543.28
2022-08-06T13:56:48.716Z,102544.09
2022-08-06T13:59:39.683Z,102543.66
2022-08-06T14:02:09.562Z,102540.41
2022-08-06T14:04:40.654Z,102547.25
2022-08-06T14:07:09.465Z,102544.59
2022-08-06T14:09:58.382Z,102536.09
2022-08-06T14:12:29.577Z,102538.56
2022-08-06T14:14:59.731Z,102544.19
2022-08-06T14:17:33.772Z,102540.50
2022-08-06T14:20:16.119Z,102539.22
2022-08-06T14:22:48.311Z,102546.00
2022-08-06T14:25:17.704Z,102540.66
2022-08-06T14:27:46.050Z,102549.97
2022-08-06T14:30:25.362Z,102549.91
2022-08-06T14:33:00.568Z,102542.34
2022-08-06T14:35:50.545Z,102548.06
2022-08-06T14:38:20.408Z,102550.06
2022-08-06T14:41:09.818Z,102541.78
2022-08-06T14:43:57.709Z,102553.28
2022-08-06T14:46:31.474Z,102554.72
2022-08-06T14:49:05.785Z,102548.25
2022-08-06T14:52:19.338Z,102552.91
2022-08-06T14:54:31.612Z,102549.69
2022-08-06T14:57:02.356Z,102549.91
2022-08-06T14:59:32.101Z,102552.81
2022-08-06T15:02:15.143Z,102547.78
2022-08-06T15:04:45.809Z,102549.63
2022-08-06T15:07:24.978Z,102551.03
2022-08-06T15:10:04.998Z,102551.44
2022-08-06T15:12:48.535Z,102549.03
2022-08-06T15:15:23.946Z,102548.59
2022-08-06T15:18:17.505Z,102540.81
2022-08-06T15:20:55.285Z,102547.50
2022-08-06T15:23:44.903Z,102543.69
2022-08-06T15:26:47.124Z,102537.81
2022-08-06T15:29:04.669Z,102542.91
2022-08-06T15:31:39.854Z,102537.34
2022-08-06T15:34:12.145Z,102534.34
2022-08-06T15:37:02.883Z,102536.44
2022-08-06T15:39:53.253Z,102534.31
2022-08-06T15:42:19.024Z,102537.81
2022-08-06T15:44:47.123Z,102532.50
2022-08-06T15:47:15.852Z,102532.84
2022-08-06T15:50:03.084Z,102534.31
2022-08-06T15:52:34.512Z,102550.88
2022-08-06T15:55:15.499Z,102538.63
2022-08-06T15:57:50.147Z,102545.31
2022-08-06T16:00:35.866Z,102540.22
2022-08-06T16:03:06.431Z,102533.78
2022-08-06T16:06:12.467Z,102539.53
2022-08-06T16:08:33.986Z,102540.94
2022-08-06T16:11:08.765Z,102539.63
2022-08-06T16:13:38.576Z,102548.75
2022-08-06T16:16:08.110Z,102538.47
2022-08-06T16:18:49.000Z,102535.53
2022-08-06T16:21:23.038Z,102541.41
2022-08-06T16:23:57.070Z,102542.41
2022-08-06T16:26:42.947Z,102540.94
2022-08-06T16:29:19.894Z,102542.91
2022-08-06T16:31:53.682Z,102536.59
2022-08-06T16:34:25.184Z,102544.16
2022-08-06T16:37:01.333Z,102535.41
2022-08-06T16:39:35.916Z,102535.16
2022-08-06T16:42:06.321Z,102542.56
2022-08-06T16:44:36.448Z,102533.56
2022-08-06T16:47:18.494Z,102535.16
2022-08-06T16:50:19.495Z,102528.16
2022-08-06T16:52:44.599Z,102532.22
2022-08-06T16:55:24.413Z,102533.19
2022-08-06T16:57:57.666Z,102528.50
2022-08-06T17:00:59.547Z,102528.50
2022-08-06T17:03:43.113Z,102537.75
2022-08-06T17:06:07.096Z,102533.22
2022-08-06T17:08:36.455Z,102534.06
2022-08-06T17:11:45.593Z,102528.13
2022-08-06T17:13:57.502Z,102536.28
2022-08-06T17:16:29.813Z,102535.66
2022-08-06T17:18:58.490Z,102530.00
2022-08-06T17:21:58.026Z,102534.81
2022-08-06T17:24:15.979Z,102535.28
2022-08-06T17:29:46.537Z,102539.66
2022-08-06T17:32:29.826Z,102536.31
2022-08-06T17:35:01.386Z,102534.59
2022-08-06T17:37:44.165Z,102543.84
2022-08-06T17:40:18.661Z,102531.75
2022-08-06T17:42:56.323Z,102534.59
2022-08-06T17:45:24.409Z,102538.03
2022-08-06T17:47:52.497Z,102536.88
2022-08-06T17:50:20.791Z,102532.56
2022-08-06T17:52:48.745Z,102538.22
2022-08-06T17:55:20.326Z,102535.00
2022-08-06T17:58:38.027Z,102540.56
2022-08-06T18:01:06.160Z,102540.06
2022-08-06T18:03:49.558Z,102535.53
2022-08-06T18:06:18.619Z,102533.94
2022-08-06T18:08:50.515Z,102543.16
2022-08-06T18:11:20.555Z,102543.13
2022-08-06T18:13:55.008Z,102555.88
2022-08-06T18:16:28.045Z,102553.50
2022-08-06T18:18:58.414Z,102554.00
2022-08-06T18:21:27.581Z,102548.69
2022-08-06T18:23:55.939Z,102556.50
2022-08-06T18:26:30.705Z,102559.53
2022-08-06T18:29:04.285Z,102550.38
2022-08-06T18:31:58.796Z,102561.03
2022-08-06T18:34:29.575Z,102560.28
2022-08-06T18:37:05.645Z,102561.59
2022-08-06T18:40:19.268Z,102555.97
2022-08-06T18:42:36.349Z,102557.91
2022-08-06T18:45:10.165Z,102562.38
2022-08-06T18:47:42.729Z,102561.50
2022-08-06T18:50:10.820Z,102561.94
2022-08-06T18:52:40.187Z,102567.69
2022-08-06T18:55:17.779Z,102572.47
2022-08-06T18:58:04.404Z,102572.66
2022-08-06T19:00:52.794Z,102580.00
2022-08-06T19:03:24.641Z,102583.91
2022-08-06T19:06:09.323Z,102581.28
2022-08-06T19:08:39.598Z,102591.69
2022-08-06T19:11:07.835Z,102590.81
2022-08-06T19:13:56.644Z,102591.59
2022-08-06T19:16:26.948Z,102587.34
2022-08-06T19:18:57.713Z,102595.72
2022-08-06T19:21:26.668Z,102588.00
2022-08-06T19:24:01.850Z,102595.34
2022-08-06T19:26:35.165Z,102591.88
2022-08-06T19:29:05.233Z,102597.94
2022-08-06T19:31:43.035Z,102600.09
2022-08-06T19:34:14.551Z,102600.22
2022-08-06T19:36:44.840Z,102601.06
2022-08-06T19:39:58.833Z,102597.91
2022-08-06T19:42:02.675Z,102611.66
2022-08-06T19:44:37.262Z,102608.28
2022-08-06T19:47:15.472Z,102607.72
2022-08-06T19:49:52.902Z,102609.88
2022-08-06T19:52:25.596Z,102611.16
2022-08-06T19:54:54.465Z,102606.63
2022-08-06T19:57:30.230Z,102602.66
2022-08-06T20:00:50.918Z,102607.09
2022-08-06T20:02:53.283Z,102611.19
2022-08-06T20:05:25.110Z,102609.75
2022-08-06T20:08:32.203Z,102611.78
2022-08-06T20:11:01.279Z,102616.06
2022-08-06T20:13:30.415Z,102616.19
2022-08-06T20:16:03.874Z,102613.59
2022-08-06T20:18:35.397Z,102616.34
2022-08-06T20:21:05.134Z,102616.47
2022-08-06T20:23:40.567Z,102623.03
2022-08-06T20:26:34.869Z,102616.00
2022-08-06T20:29:09.297Z,102623.63
2022-08-06T20:31:49.509Z,102623.94
2022-08-06T20:34:27.348Z,102626.25
2022-08-06T20:36:57.707Z,102630.13
2022-08-06T20:39:27.169Z,102628.41
2022-08-06T20:42:02.876Z,102624.91
2022-08-06T20:44:32.954Z,102621.34
2022-08-06T20:47:46.625Z,102624.16
2022-08-06T20:50:04.552Z,102629.94
2022-08-06T20:52:33.687Z,102627.59
2022-08-06T20:55:02.574Z,102624.63
2022-08-06T20:57:37.213Z,102624.63
2022-08-06T21:00:17.759Z,102626.66
2022-08-06T21:03:03.534Z,102628.47
2022-08-06T21:05:50.835Z,102626.72
2022-08-06T21:08:26.668Z,102626.81
2022-08-06T21:10:56.821Z,102627.91
2022-08-06T21:13:36.869Z,102625.25
2022-08-06T21:16:14.760Z,102630.41
2022-08-06T21:19:00.455Z,102631.44
2022-08-06T21:21:31.957Z,102629.69
2022-08-06T21:24:00.874Z,102636.25
2022-08-06T21:26:34.638Z,102638.19
2022-08-06T21:30:07.277Z,102639.13
2022-08-06T21:31:52.633Z,102628.81
2022-08-06T21:34:22.887Z,102636.81
2022-08-06T21:36:53.524Z,102639.59
2022-08-06T21:39:24.437Z,102640.84
2022-08-06T21:42:12.304Z,102634.66
2022-08-06T21:44:40.682Z,102640.06
2022-08-06T21:47:08.720Z,102641.22
2022-08-06T21:49:58.542Z,102636.00
2022-08-06T21:52:30.944Z,102642.53
2022-08-06T21:55:05.268Z,102639.00
2022-08-06T21:57:45.457Z,102628.66
2022-08-06T22:00:34.327Z,102640.31
2022-08-06T22:03:07.041Z,102639.63
2022-08-06T22:06:20.842Z,102639.63
2022-08-06T22:08:32.341Z,102635.28
2022-08-06T22:12:38.867Z,102640.09
2022-08-06T22:14:01.052Z,102634.09
2022-08-06T22:16:33.193Z,102637.91
2022-08-06T22:19:02.463Z,102634.38
2022-08-06T22:21:49.661Z,102634.47
2022-08-06T22:24:20.020Z,102640.03
2022-08-06T22:26:48.140Z,102630.34
2022-08-06T22:29:27.303Z,102626.03
2022-08-06T22:32:00.245Z,102635.03
2022-08-06T22:34:36.111Z,102621.66
2022-08-06T22:37:14.829Z,102627.25
2022-08-06T22:39:44.445Z,102626.28
2022-08-06T22:42:20.578Z,102624.81
2022-08-06T22:45:47.524Z,102623.94
2022-08-06T22:47:49.585Z,102622.31
2022-08-06T22:50:25.903Z,102625.00
2022-08-06T22:53:02.629Z,102619.72
2022-08-06T22:55:49.045Z,102617.25
2022-08-06T22:59:04.985Z,102626.31
2022-08-06T23:01:23.095Z,102626.31
2022-08-06T23:03:55.053Z,102624.22
2022-08-06T23:06:28.834Z,102624.06
2022-08-06T23:09:00.149Z,102623.19
2022-08-06T23:11:28.860Z,102617.22
2022-08-06T23:13:56.964Z,102623.28
2022-08-06T23:16:28.316Z,102620.25
2022-08-06T23:18:56.865Z,102613.53
2022-08-06T23:21:50.409Z,102613.34
2022-08-06T23:24:32.897Z,102616.75
2022-08-06T23:27:06.957Z,102602.50
2022-08-06T23:30:09.456Z,102616.13
2022-08-06T23:32:29.879Z,102612.75
2022-08-06T23:34:58.559Z,102610.41
2022-08-06T23:37:31.903Z,102607.81
2022-08-06T23:40:14.945Z,102603.81
2022-08-06T23:42:45.668Z,102603.81
2022-08-06T23:45:17.991Z,102605.13
2022-08-06T23:47:53.506Z,102595.41
2022-08-06T23:50:26.076Z,102601.66
2022-08-06T23:53:06.236Z,102601.75
2022-08-06T23:55:37.130Z,102605.28
2022-08-06T23:58:06.354Z,102609.97
